sensor_id;sensor_type;location;lat;lon;timestamp;temperature;humidity
4727;DHT22;2377;51.734;8.950;2022-09-24T00:01:24;11.70;99.90
4727;DHT22;2377;51.734;8.950;2022-09-24T00:03:54;11.80;99.90
4727;DHT22;2377;51.734;8.950;2022-09-24T00:06:23;11.80;99.90
4727;DHT22;2377;51.734;8.950;2022-09-24T00:08:54;11.70;99.90
4727;DHT22;2377;51.734;8.950;2022-09-24T00:11:23;11.70;99.90
4727;DHT22;2377;51.734;8.950;2022-09-24T00:13:52;11.70;99.90
4727;DHT22;2377;51.734;8.950;2022-09-24T00:16:23;11.70;99.90
4727;DHT22;2377;51.734;8.950;2022-09-24T00:18:52;11.60;99.90
4727;DHT22;2377;51.734;8.950;2022-09-24T00:21:22;11.60;99.90
4727;DHT22;2377;51.734;8.950;2022-09-24T00:23:52;11.60;99.90
4727;DHT22;2377;51.734;8.950;2022-09-24T00:26:21;11.60;99.90
4727;DHT22;2377;51.734;8.950;2022-09-24T00:29:07;11.60;99.90
4727;DHT22;2377;51.734;8.950;2022-09-24T00:31:38;11.60;99.90
4727;DHT22;2377;51.734;8.950;2022-09-24T00:34:06;11.60;99.90
4727;DHT22;2377;51.734;8.950;2022-09-24T00:36:33;11.70;99.90
4727;DHT22;2377;51.734;8.950;2022-09-24T00:39:00;11.60;99.90
4727;DHT22;2377;51.734;8.950;2022-09-24T00:41:29;11.70;99.90
4727;DHT22;2377;51.734;8.950;2022-09-24T00:43:58;11.70;99.90
4727;DHT22;2377;51.734;8.950;2022-09-24T00:46:28;11.70;99.90
4727;DHT22;2377;51.734;8.950;2022-09-24T00:49:02;11.70;99.90
4727;DHT22;2377;51.734;8.950;2022-09-24T00:51:32;11.70;99.90
4727;DHT22;2377;51.734;8.950;2022-09-24T00:54:02;11.70;99.90
4727;DHT22;2377;51.734;8.950;2022-09-24T00:56:33;11.70;99.90
4727;DHT22;2377;51.734;8.950;2022-09-24T00:59:04;11.70;99.90
4727;DHT22;2377;51.734;8.950;2022-09-24T01:01:35;11.70;99.90
4727;DHT22;2377;51.734;8.950;2022-09-24T01:04:05;11.70;99.90
4727;DHT22;2377;51.734;8.950;2022-09-24T01:06:33;11.70;99.90
4727;DHT22;2377;51.734;8.950;2022-09-24T01:09:00;11.70;99.90
4727;DHT22;2377;51.734;8.950;2022-09-24T01:11:42;11.60;99.90
4727;DHT22;2377;51.734;8.950;2022-09-24T01:14:32;11.60;99.90
4727;DHT22;2377;51.734;8.950;2022-09-24T01:17:24;11.70;99.90
4727;DHT22;2377;51.734;8.950;2022-09-24T01:20:26;11.70;99.90
4727;DHT22;2377;51.734;8.950;2022-09-24T01:23:20;11.80;99.90
4727;DHT22;2377;51.734;8.950;2022-09-24T01:26:15;11.80;99.90
4727;DHT22;2377;51.734;8.950;2022-09-24T01:31:52;11.80;99.90
4727;DHT22;2377;51.734;8.950;2022-09-24T01:34:31;11.80;99.90
4727;DHT22;2377;51.734;8.950;2022-09-24T01:37:05;11.70;99.90
4727;DHT22;2377;51.734;8.950;2022-09-24T01:39:36;11.60;99.90
4727;DHT22;2377;51.734;8.950;2022-09-24T01:42:04;11.60;99.90
4727;DHT22;2377;51.734;8.950;2022-09-24T01:44:37;11.70;99.90
4727;DHT22;2377;51.734;8.950;2022-09-24T01:47:11;11.70;99.90
4727;DHT22;2377;51.734;8.950;2022-09-24T01:49:42;11.70;99.90
4727;DHT22;2377;51.734;8.950;2022-09-24T01:52:14;11.80;99.90
4727;DHT22;2377;51.734;8.950;2022-09-24T01:54:46;11.70;99.90
4727;DHT22;2377;51.734;8.950;2022-09-24T01:57:20;11.70;99.90
4727;DHT22;2377;51.734;8.950;2022-09-24T01:59:56;11.60;99.90
4727;DHT22;2377;51.734;8.950;2022-09-24T02:02:28;11.60;99.90
4727;DHT22;2377;51.734;8.950;2022-09-24T02:05:03;11.60;99.90
4727;DHT22;2377;51.734;8.950;2022-09-24T02:07:41;11.60;99.90
4727;DHT22;2377;51.734;8.950;2022-09-24T02:10:15;11.70;99.90
4727;DHT22;2377;51.734;8.950;2022-09-24T02:12:47;11.60;99.90
4727;DHT22;2377;51.734;8.950;2022-09-24T02:15:23;11.60;99.90
4727;DHT22;2377;51.734;8.950;2022-09-24T02:17:58;11.60;99.90
4727;DHT22;2377;51.734;8.950;2022-09-24T02:20:30;11.70;99.90
4727;DHT22;2377;51.734;8.950;2022-09-24T02:23:00;11.60;99.90
4727;DHT22;2377;51.734;8.950;2022-09-24T02:25:36;11.60;99.90
4727;DHT22;2377;51.734;8.950;2022-09-24T02:28:06;11.60;99.90
4727;DHT22;2377;51.734;8.950;2022-09-24T02:30:39;11.60;99.90
4727;DHT22;2377;51.734;8.950;2022-09-24T02:33:11;11.70;99.90
4727;DHT22;2377;51.734;8.950;2022-09-24T02:35:59;11.70;99.90
4727;DHT22;2377;51.734;8.950;2022-09-24T02:38:26;11.60;99.90
4727;DHT22;2377;51.734;8.950;2022-09-24T02:40:53;11.60;99.90
4727;DHT22;2377;51.734;8.950;2022-09-24T02:43:22;11.60;99.90
4727;DHT22;2377;51.734;8.950;2022-09-24T02:45:52;11.60;99.90
4727;DHT22;2377;51.734;8.950;2022-09-24T02:48:19;11.60;99.90
4727;DHT22;2377;51.734;8.950;2022-09-24T02:50:46;11.60;99.90
4727;DHT22;2377;51.734;8.950;2022-09-24T02:53:13;11.60;99.90
4727;DHT22;2377;51.734;8.950;2022-09-24T02:55:40;11.60;99.90
4727;DHT22;2377;51.734;8.950;2022-09-24T02:58:09;11.50;99.90
4727;DHT22;2377;51.734;8.950;2022-09-24T03:00:36;11.50;99.90
4727;DHT22;2377;51.734;8.950;2022-09-24T03:03:04;11.50;99.90
4727;DHT22;2377;51.734;8.950;2022-09-24T03:05:31;11.50;99.90
4727;DHT22;2377;51.734;8.950;2022-09-24T03:07:59;11.50;99.90
4727;DHT22;2377;51.734;8.950;2022-09-24T03:10:27;11.50;99.90
4727;DHT22;2377;51.734;8.950;2022-09-24T03:12:54;11.50;99.90
4727;DHT22;2377;51.734;8.950;2022-09-24T03:15:22;11.50;99.90
4727;DHT22;2377;51.734;8.950;2022-09-24T03:17:50;11.50;99.90
4727;DHT22;2377;51.734;8.950;2022-09-24T03:20:18;11.50;99.90
4727;DHT22;2377;51.734;8.950;2022-09-24T03:22:49;11.50;99.90
4727;DHT22;2377;51.734;8.950;2022-09-24T03:25:17;11.40;99.90
4727;DHT22;2377;51.734;8.950;2022-09-24T03:27:44;11.40;99.90
4727;DHT22;2377;51.734;8.950;2022-09-24T03:30:12;11.30;99.90
4727;DHT22;2377;51.734;8.950;2022-09-24T03:32:57;11.30;99.90
4727;DHT22;2377;51.734;8.950;2022-09-24T03:35:54;11.20;99.90
4727;DHT22;2377;51.734;8.950;2022-09-24T03:38:22;11.20;99.90
4727;DHT22;2377;51.734;8.950;2022-09-24T03:40:49;11.30;99.90
4727;DHT22;2377;51.734;8.950;2022-09-24T03:43:17;11.30;99.90
4727;DHT22;2377;51.734;8.950;2022-09-24T03:45:44;11.30;99.90
4727;DHT22;2377;51.734;8.950;2022-09-24T03:48:11;11.30;99.90
4727;DHT22;2377;51.734;8.950;2022-09-24T03:50:38;11.30;99.90
4727;DHT22;2377;51.734;8.950;2022-09-24T03:53:06;11.30;99.90
4727;DHT22;2377;51.734;8.950;2022-09-24T03:55:34;11.30;99.90
4727;DHT22;2377;51.734;8.950;2022-09-24T03:58:02;11.30;99.90
4727;DHT22;2377;51.734;8.950;2022-09-24T04:00:29;11.30;99.90
4727;DHT22;2377;51.734;8.950;2022-09-24T04:02:56;11.30;99.90
4727;DHT22;2377;51.734;8.950;2022-09-24T04:05:23;11.30;99.90
4727;DHT22;2377;51.734;8.950;2022-09-24T04:07:50;11.30;99.90
4727;DHT22;2377;51.734;8.950;2022-09-24T04:10:18;11.20;99.90
4727;DHT22;2377;51.734;8.950;2022-09-24T04:12:46;11.10;99.90
4727;DHT22;2377;51.734;8.950;2022-09-24T04:15:13;11.10;99.90
4727;DHT22;2377;51.734;8.950;2022-09-24T04:17:48;11.10;99.90
4727;DHT22;2377;51.734;8.950;2022-09-24T04:20:16;11.10;99.90
4727;DHT22;2377;51.734;8.950;2022-09-24T04:22:46;11.20;99.90
4727;DHT22;2377;51.734;8.950;2022-09-24T04:25:13;11.20;99.90
4727;DHT22;2377;51.734;8.950;2022-09-24T04:27:42;11.20;99.90
4727;DHT22;2377;51.734;8.950;2022-09-24T04:30:11;11.10;99.90
4727;DHT22;2377;51.734;8.950;2022-09-24T04:32:40;11.10;99.90
4727;DHT22;2377;51.734;8.950;2022-09-24T04:35:08;11.10;99.90
4727;DHT22;2377;51.734;8.950;2022-09-24T04:37:35;11.10;99.90
4727;DHT22;2377;51.734;8.950;2022-09-24T04:40:03;11.10;99.90
4727;DHT22;2377;51.734;8.950;2022-09-24T04:42:37;11.10;99.90
4727;DHT22;2377;51.734;8.950;2022-09-24T04:45:07;11.10;99.90
4727;DHT22;2377;51.734;8.950;2022-09-24T04:47:36;11.20;99.90
4727;DHT22;2377;51.734;8.950;2022-09-24T04:50:06;11.20;99.90
4727;DHT22;2377;51.734;8.950;2022-09-24T04:52:34;11.20;99.90
4727;DHT22;2377;51.734;8.950;2022-09-24T04:55:02;11.20;99.90
4727;DHT22;2377;51.734;8.950;2022-09-24T04:57:30;11.10;99.90
4727;DHT22;2377;51.734;8.950;2022-09-24T05:00:02;11.10;99.90
4727;DHT22;2377;51.734;8.950;2022-09-24T05:02:33;11.10;99.90
4727;DHT22;2377;51.734;8.950;2022-09-24T05:05:00;11.10;99.90
4727;DHT22;2377;51.734;8.950;2022-09-24T05:07:27;11.10;99.90
4727;DHT22;2377;51.734;8.950;2022-09-24T05:09:54;11.10;99.90
4727;DHT22;2377;51.734;8.950;2022-09-24T05:12:21;11.10;99.90
4727;DHT22;2377;51.734;8.950;2022-09-24T05:14:49;11.10;99.90
4727;DHT22;2377;51.734;8.950;2022-09-24T05:17:16;11.10;99.90
4727;DHT22;2377;51.734;8.950;2022-09-24T05:19:44;11.10;99.90
4727;DHT22;2377;51.734;8.950;2022-09-24T05:22:11;11.10;99.90
4727;DHT22;2377;51.734;8.950;2022-09-24T05:24:39;11.20;99.90
4727;DHT22;2377;51.734;8.950;2022-09-24T05:27:07;11.20;99.90
4727;DHT22;2377;51.734;8.950;2022-09-24T05:29:34;11.20;99.90
4727;DHT22;2377;51.734;8.950;2022-09-24T05:32:03;11.20;99.90
4727;DHT22;2377;51.734;8.950;2022-09-24T05:34:32;11.20;99.90
4727;DHT22;2377;51.734;8.950;2022-09-24T05:37:01;11.20;99.90
4727;DHT22;2377;51.734;8.950;2022-09-24T05:39:29;11.20;99.90
4727;DHT22;2377;51.734;8.950;2022-09-24T05:41:57;11.20;99.90
4727;DHT22;2377;51.734;8.950;2022-09-24T05:44:24;11.20;99.90
4727;DHT22;2377;51.734;8.950;2022-09-24T05:46:51;11.20;99.90
4727;DHT22;2377;51.734;8.950;2022-09-24T05:49:18;11.20;99.90
4727;DHT22;2377;51.734;8.950;2022-09-24T05:51:49;11.30;99.90
4727;DHT22;2377;51.734;8.950;2022-09-24T05:54:18;11.20;99.90
4727;DHT22;2377;51.734;8.950;2022-09-24T05:56:45;11.30;99.90
4727;DHT22;2377;51.734;8.950;2022-09-24T05:59:12;11.30;99.90
4727;DHT22;2377;51.734;8.950;2022-09-24T06:01:40;11.30;99.90
4727;DHT22;2377;51.734;8.950;2022-09-24T06:04:08;11.30;99.90
4727;DHT22;2377;51.734;8.950;2022-09-24T06:06:36;11.30;99.90
4727;DHT22;2377;51.734;8.950;2022-09-24T06:09:03;11.40;99.90
4727;DHT22;2377;51.734;8.950;2022-09-24T06:11:34;11.40;99.90
4727;DHT22;2377;51.734;8.950;2022-09-24T06:14:02;11.50;99.90
4727;DHT22;2377;51.734;8.950;2022-09-24T06:16:31;11.50;99.90
4727;DHT22;2377;51.734;8.950;2022-09-24T06:18:59;11.50;99.90
4727;DHT22;2377;51.734;8.950;2022-09-24T06:21:26;11.60;99.90
4727;DHT22;2377;51.734;8.950;2022-09-24T06:23:53;11.60;99.90
4727;DHT22;2377;51.734;8.950;2022-09-24T06:26:21;11.60;99.90
4727;DHT22;2377;51.734;8.950;2022-09-24T06:28:52;11.60;99.90
4727;DHT22;2377;51.734;8.950;2022-09-24T06:31:19;11.60;99.90
4727;DHT22;2377;51.734;8.950;2022-09-24T06:33:46;11.70;99.90
4727;DHT22;2377;51.734;8.950;2022-09-24T06:36:13;11.70;99.90
4727;DHT22;2377;51.734;8.950;2022-09-24T06:38:40;11.80;99.90
4727;DHT22;2377;51.734;8.950;2022-09-24T06:41:10;11.80;99.90
4727;DHT22;2377;51.734;8.950;2022-09-24T06:43:37;11.90;99.90
4727;DHT22;2377;51.734;8.950;2022-09-24T06:46:05;11.90;99.90
4727;DHT22;2377;51.734;8.950;2022-09-24T06:48:32;11.90;99.90
4727;DHT22;2377;51.734;8.950;2022-09-24T06:51:03;12.00;99.90
4727;DHT22;2377;51.734;8.950;2022-09-24T06:53:30;12.00;99.90
4727;DHT22;2377;51.734;8.950;2022-09-24T06:55:58;12.00;99.90
4727;DHT22;2377;51.734;8.950;2022-09-24T06:58:25;12.10;99.90
4727;DHT22;2377;51.734;8.950;2022-09-24T07:00:56;12.10;99.90
4727;DHT22;2377;51.734;8.950;2022-09-24T07:03:26;12.10;99.90
4727;DHT22;2377;51.734;8.950;2022-09-24T07:05:54;12.20;99.90
4727;DHT22;2377;51.734;8.950;2022-09-24T07:08:22;12.20;99.90
4727;DHT22;2377;51.734;8.950;2022-09-24T07:10:49;12.30;99.90
4727;DHT22;2377;51.734;8.950;2022-09-24T07:13:17;12.30;99.90
4727;DHT22;2377;51.734;8.950;2022-09-24T07:15:46;12.30;99.90
4727;DHT22;2377;51.734;8.950;2022-09-24T07:18:15;12.30;99.90
4727;DHT22;2377;51.734;8.950;2022-09-24T07:20:49;12.30;99.90
4727;DHT22;2377;51.734;8.950;2022-09-24T07:23:17;12.40;99.90
4727;DHT22;2377;51.734;8.950;2022-09-24T07:25:44;12.40;99.90
4727;DHT22;2377;51.734;8.950;2022-09-24T07:28:13;12.50;99.90
4727;DHT22;2377;51.734;8.950;2022-09-24T07:30:41;12.50;99.90
4727;DHT22;2377;51.734;8.950;2022-09-24T07:33:08;12.50;99.90
4727;DHT22;2377;51.734;8.950;2022-09-24T07:35:37;12.50;99.90
4727;DHT22;2377;51.734;8.950;2022-09-24T07:38:07;12.50;99.90
4727;DHT22;2377;51.734;8.950;2022-09-24T07:40:37;12.50;99.90
4727;DHT22;2377;51.734;8.950;2022-09-24T07:43:05;12.60;99.90
4727;DHT22;2377;51.734;8.950;2022-09-24T07:45:38;12.50;99.90
4727;DHT22;2377;51.734;8.950;2022-09-24T07:48:05;12.50;99.90
4727;DHT22;2377;51.734;8.950;2022-09-24T07:50:36;12.50;99.90
4727;DHT22;2377;51.734;8.950;2022-09-24T07:53:07;12.50;99.90
4727;DHT22;2377;51.734;8.950;2022-09-24T07:55:36;12.50;99.90
4727;DHT22;2377;51.734;8.950;2022-09-24T07:58:05;12.50;99.90
4727;DHT22;2377;51.734;8.950;2022-09-24T08:00:34;12.50;99.90
4727;DHT22;2377;51.734;8.950;2022-09-24T08:03:02;12.40;99.90
4727;DHT22;2377;51.734;8.950;2022-09-24T08:05:30;12.50;99.90
4727;DHT22;2377;51.734;8.950;2022-09-24T08:07:57;12.50;99.90
4727;DHT22;2377;51.734;8.950;2022-09-24T08:10:27;12.50;99.90
4727;DHT22;2377;51.734;8.950;2022-09-24T08:12:54;12.50;99.90
4727;DHT22;2377;51.734;8.950;2022-09-24T08:15:22;12.50;99.90
4727;DHT22;2377;51.734;8.950;2022-09-24T08:17:50;12.50;99.90
4727;DHT22;2377;51.734;8.950;2022-09-24T08:20:17;12.60;99.90
4727;DHT22;2377;51.734;8.950;2022-09-24T08:22:45;12.60;99.90
4727;DHT22;2377;51.734;8.950;2022-09-24T08:25:13;12.60;99.90
4727;DHT22;2377;51.734;8.950;2022-09-24T08:27:41;12.60;99.90
4727;DHT22;2377;51.734;8.950;2022-09-24T08:30:10;12.60;99.90
4727;DHT22;2377;51.734;8.950;2022-09-24T08:32:37;12.70;99.90
4727;DHT22;2377;51.734;8.950;2022-09-24T08:35:06;12.80;99.90
4727;DHT22;2377;51.734;8.950;2022-09-24T08:37:33;12.80;99.90
4727;DHT22;2377;51.734;8.950;2022-09-24T08:40:02;12.80;99.90
4727;DHT22;2377;51.734;8.950;2022-09-24T08:42:36;12.80;99.90
4727;DHT22;2377;51.734;8.950;2022-09-24T08:45:13;12.80;99.90
4727;DHT22;2377;51.734;8.950;2022-09-24T08:48:05;12.90;99.90
4727;DHT22;2377;51.734;8.950;2022-09-24T08:50:44;13.00;99.90
4727;DHT22;2377;51.734;8.950;2022-09-24T08:53:27;13.00;99.90
4727;DHT22;2377;51.734;8.950;2022-09-24T08:56:02;13.10;99.90
4727;DHT22;2377;51.734;8.950;2022-09-24T08:58:37;13.10;99.90
4727;DHT22;2377;51.734;8.950;2022-09-24T09:01:16;13.30;99.90
4727;DHT22;2377;51.734;8.950;2022-09-24T09:03:57;13.30;99.90
4727;DHT22;2377;51.734;8.950;2022-09-24T09:06:48;13.40;99.90
4727;DHT22;2377;51.734;8.950;2022-09-24T09:09:42;13.50;99.90
4727;DHT22;2377;51.734;8.950;2022-09-24T09:12:16;13.50;99.90
4727;DHT22;2377;51.734;8.950;2022-09-24T09:14:54;13.50;99.90
4727;DHT22;2377;51.734;8.950;2022-09-24T09:17:34;13.50;99.90
4727;DHT22;2377;51.734;8.950;2022-09-24T09:20:12;13.60;99.90
4727;DHT22;2377;51.734;8.950;2022-09-24T09:22:45;13.70;99.90
4727;DHT22;2377;51.734;8.950;2022-09-24T09:25:18;13.80;99.90
4727;DHT22;2377;51.734;8.950;2022-09-24T09:27:50;13.80;99.90
4727;DHT22;2377;51.734;8.950;2022-09-24T09:30:23;13.90;99.90
4727;DHT22;2377;51.734;8.950;2022-09-24T09:33:12;14.00;99.90
4727;DHT22;2377;51.734;8.950;2022-09-24T09:35:52;14.00;99.90
4727;DHT22;2377;51.734;8.950;2022-09-24T09:38:31;14.10;99.90
4727;DHT22;2377;51.734;8.950;2022-09-24T09:41:12;14.10;99.90
4727;DHT22;2377;51.734;8.950;2022-09-24T09:43:46;14.20;99.90
4727;DHT22;2377;51.734;8.950;2022-09-24T09:46:19;14.30;99.90
4727;DHT22;2377;51.734;8.950;2022-09-24T09:48:55;14.50;99.90
4727;DHT22;2377;51.734;8.950;2022-09-24T09:51:26;14.60;99.90
4727;DHT22;2377;51.734;8.950;2022-09-24T09:53:59;14.70;99.90
4727;DHT22;2377;51.734;8.950;2022-09-24T09:56:29;14.80;99.90
4727;DHT22;2377;51.734;8.950;2022-09-24T09:59:04;15.00;99.90
4727;DHT22;2377;51.734;8.950;2022-09-24T10:01:37;15.00;99.90
4727;DHT22;2377;51.734;8.950;2022-09-24T10:04:22;15.20;99.90
4727;DHT22;2377;51.734;8.950;2022-09-24T10:07:07;15.30;99.90
4727;DHT22;2377;51.734;8.950;2022-09-24T10:09:35;15.50;99.90
4727;DHT22;2377;51.734;8.950;2022-09-24T10:12:08;15.60;94.30
4727;DHT22;2377;51.734;8.950;2022-09-24T10:14:41;15.70;77.10
4727;DHT22;2377;51.734;8.950;2022-09-24T10:17:13;15.80;65.10
4727;DHT22;2377;51.734;8.950;2022-09-24T10:19:44;15.80;43.40
4727;DHT22;2377;51.734;8.950;2022-09-24T10:22:17;15.90;48.80
4727;DHT22;2377;51.734;8.950;2022-09-24T10:24:48;15.90;69.80
4727;DHT22;2377;51.734;8.950;2022-09-24T10:27:22;16.00;47.20
4727;DHT22;2377;51.734;8.950;2022-09-24T10:29:56;16.00;43.20
4727;DHT22;2377;51.734;8.950;2022-09-24T10:32:44;16.10;36.00
4727;DHT22;2377;51.734;8.950;2022-09-24T10:35:22;16.10;8.90
4727;DHT22;2377;51.734;8.950;2022-09-24T10:37:54;16.00;7.20
4727;DHT22;2377;51.734;8.950;2022-09-24T10:40:25;16.00;13.20
4727;DHT22;2377;51.734;8.950;2022-09-24T10:42:59;16.00;13.20
4727;DHT22;2377;51.734;8.950;2022-09-24T10:48:38;16.10;20.70
4727;DHT22;2377;51.734;8.950;2022-09-24T10:51:24;16.10;17.80
4727;DHT22;2377;51.734;8.950;2022-09-24T10:54:11;16.20;16.40
4727;DHT22;2377;51.734;8.950;2022-09-24T10:56:52;16.30;24.80
4727;DHT22;2377;51.734;8.950;2022-09-24T10:59:44;16.20;20.40
4727;DHT22;2377;51.734;8.950;2022-09-24T11:02:33;16.30;1.00
4727;DHT22;2377;51.734;8.950;2022-09-24T11:05:23;16.30;5.00
4727;DHT22;2377;51.734;8.950;2022-09-24T11:08:00;16.30;18.00
4727;DHT22;2377;51.734;8.950;2022-09-24T11:14:00;16.10;12.80
4727;DHT22;2377;51.734;8.950;2022-09-24T11:17:02;16.10;7.50
4727;DHT22;2377;51.734;8.950;2022-09-24T11:23:16;16.10;2.90
4727;DHT22;2377;51.734;8.950;2022-09-24T11:26:00;16.10;10.10
4727;DHT22;2377;51.734;8.950;2022-09-24T11:28:55;16.00;17.10
4727;DHT22;2377;51.734;8.950;2022-09-24T11:31:40;16.00;15.90
4727;DHT22;2377;51.734;8.950;2022-09-24T11:34:24;16.00;24.10
4727;DHT22;2377;51.734;8.950;2022-09-24T11:37:12;16.00;17.90
4727;DHT22;2377;51.734;8.950;2022-09-24T11:40:13;16.00;19.30
4727;DHT22;2377;51.734;8.950;2022-09-24T11:43:03;16.00;18.80
4727;DHT22;2377;51.734;8.950;2022-09-24T11:45:52;16.10;20.80
4727;DHT22;2377;51.734;8.950;2022-09-24T11:48:48;16.10;19.90
4727;DHT22;2377;51.734;8.950;2022-09-24T11:51:35;16.20;1.00
4727;DHT22;2377;51.734;8.950;2022-09-24T11:54:19;16.20;1.00
4727;DHT22;2377;51.734;8.950;2022-09-24T11:56:57;16.10;1.00
4727;DHT22;2377;51.734;8.950;2022-09-24T11:59:36;16.10;1.00
4727;DHT22;2377;51.734;8.950;2022-09-24T12:02:13;16.10;1.00
4727;DHT22;2377;51.734;8.950;2022-09-24T12:04:54;16.10;1.00
4727;DHT22;2377;51.734;8.950;2022-09-24T12:07:32;16.30;1.00
4727;DHT22;2377;51.734;8.950;2022-09-24T12:10:18;16.30;1.00
4727;DHT22;2377;51.734;8.950;2022-09-24T12:12:58;16.30;1.00
4727;DHT22;2377;51.734;8.950;2022-09-24T12:15:40;16.30;1.00
4727;DHT22;2377;51.734;8.950;2022-09-24T12:18:17;16.30;1.80
4727;DHT22;2377;51.734;8.950;2022-09-24T12:20:51;16.40;1.00
4727;DHT22;2377;51.734;8.950;2022-09-24T12:23:25;16.40;1.00
4727;DHT22;2377;51.734;8.950;2022-09-24T12:25:57;16.40;1.00
4727;DHT22;2377;51.734;8.950;2022-09-24T12:28:36;16.50;4.00
4727;DHT22;2377;51.734;8.950;2022-09-24T12:31:29;16.50;1.00
4727;DHT22;2377;51.734;8.950;2022-09-24T12:34:28;16.50;1.00
4727;DHT22;2377;51.734;8.950;2022-09-24T12:37:10;16.50;1.00
4727;DHT22;2377;51.734;8.950;2022-09-24T12:39:49;16.50;1.00
4727;DHT22;2377;51.734;8.950;2022-09-24T12:42:23;16.50;1.00
4727;DHT22;2377;51.734;8.950;2022-09-24T12:44:58;16.50;3.00
4727;DHT22;2377;51.734;8.950;2022-09-24T12:47:31;16.40;1.60
4727;DHT22;2377;51.734;8.950;2022-09-24T12:50:05;16.40;3.90
4727;DHT22;2377;51.734;8.950;2022-09-24T12:52:38;16.40;11.90
4727;DHT22;2377;51.734;8.950;2022-09-24T12:55:18;16.50;5.60
4727;DHT22;2377;51.734;8.950;2022-09-24T12:57:53;16.40;3.60
4727;DHT22;2377;51.734;8.950;2022-09-24T13:00:38;16.50;12.10
4727;DHT22;2377;51.734;8.950;2022-09-24T13:03:31;16.50;59.40
4727;DHT22;2377;51.734;8.950;2022-09-24T13:06:00;16.60;3.00
4727;DHT22;2377;51.734;8.950;2022-09-24T13:08:35;16.60;21.00
4727;DHT22;2377;51.734;8.950;2022-09-24T13:11:23;16.60;18.80
4727;DHT22;2377;51.734;8.950;2022-09-24T13:14:05;16.60;1.00
4727;DHT22;2377;51.734;8.950;2022-09-24T13:16:46;16.70;1.00
4727;DHT22;2377;51.734;8.950;2022-09-24T13:19:25;16.60;1.00
4727;DHT22;2377;51.734;8.950;2022-09-24T13:22:00;16.60;3.20
4727;DHT22;2377;51.734;8.950;2022-09-24T13:24:30;16.60;17.50
4727;DHT22;2377;51.734;8.950;2022-09-24T13:27:08;16.60;19.50
4727;DHT22;2377;51.734;8.950;2022-09-24T13:29:51;16.60;19.80
4727;DHT22;2377;51.734;8.950;2022-09-24T13:32:31;16.60;16.50
4727;DHT22;2377;51.734;8.950;2022-09-24T13:35:08;16.50;28.00
4727;DHT22;2377;51.734;8.950;2022-09-24T13:37:42;16.50;35.60
4727;DHT22;2377;51.734;8.950;2022-09-24T13:40:17;16.50;36.50
4727;DHT22;2377;51.734;8.950;2022-09-24T13:42:50;16.50;55.10
4727;DHT22;2377;51.734;8.950;2022-09-24T13:45:22;16.40;65.20
4727;DHT22;2377;51.734;8.950;2022-09-24T13:47:53;16.50;52.80
4727;DHT22;2377;51.734;8.950;2022-09-24T13:50:26;16.50;47.30
4727;DHT22;2377;51.734;8.950;2022-09-24T13:52:59;16.50;30.00
4727;DHT22;2377;51.734;8.950;2022-09-24T13:55:33;16.50;25.50
4727;DHT22;2377;51.734;8.950;2022-09-24T13:58:04;16.50;47.40
4727;DHT22;2377;51.734;8.950;2022-09-24T14:00:36;16.50;27.10
4727;DHT22;2377;51.734;8.950;2022-09-24T14:03:24;16.50;20.60
4727;DHT22;2377;51.734;8.950;2022-09-24T14:05:53;16.50;14.50
4727;DHT22;2377;51.734;8.950;2022-09-24T14:08:23;16.50;20.50
4727;DHT22;2377;51.734;8.950;2022-09-24T14:11:03;16.50;21.70
4727;DHT22;2377;51.734;8.950;2022-09-24T14:13:35;16.50;27.10
4727;DHT22;2377;51.734;8.950;2022-09-24T14:16:08;16.50;19.80
4727;DHT22;2377;51.734;8.950;2022-09-24T14:18:40;16.50;18.00
4727;DHT22;2377;51.734;8.950;2022-09-24T14:21:10;16.50;27.90
4727;DHT22;2377;51.734;8.950;2022-09-24T14:23:46;16.50;25.40
4727;DHT22;2377;51.734;8.950;2022-09-24T14:26:24;16.50;19.50
4727;DHT22;2377;51.734;8.950;2022-09-24T14:28:57;16.50;29.20
4727;DHT22;2377;51.734;8.950;2022-09-24T14:31:27;16.50;45.40
4727;DHT22;2377;51.734;8.950;2022-09-24T14:33:56;16.50;45.80
4727;DHT22;2377;51.734;8.950;2022-09-24T14:36:26;16.40;47.80
4727;DHT22;2377;51.734;8.950;2022-09-24T14:38:58;16.50;56.80
4727;DHT22;2377;51.734;8.950;2022-09-24T14:41:39;16.40;36.40
4727;DHT22;2377;51.734;8.950;2022-09-24T14:44:17;16.50;28.30
4727;DHT22;2377;51.734;8.950;2022-09-24T14:46:49;16.40;20.10
4727;DHT22;2377;51.734;8.950;2022-09-24T14:49:22;16.30;25.70
4727;DHT22;2377;51.734;8.950;2022-09-24T14:51:54;16.30;31.80
4727;DHT22;2377;51.734;8.950;2022-09-24T14:54:27;16.30;36.00
4727;DHT22;2377;51.734;8.950;2022-09-24T14:57:08;16.30;26.70
4727;DHT22;2377;51.734;8.950;2022-09-24T14:59:38;16.30;15.30
4727;DHT22;2377;51.734;8.950;2022-09-24T15:02:14;16.20;20.60
4727;DHT22;2377;51.734;8.950;2022-09-24T15:04:47;16.10;29.20
4727;DHT22;2377;51.734;8.950;2022-09-24T15:07:18;16.20;13.20
4727;DHT22;2377;51.734;8.950;2022-09-24T15:09:49;16.20;31.20
4727;DHT22;2377;51.734;8.950;2022-09-24T15:12:19;16.10;36.10
4727;DHT22;2377;51.734;8.950;2022-09-24T15:14:56;16.10;33.60
4727;DHT22;2377;51.734;8.950;2022-09-24T15:17:29;16.00;38.60
4727;DHT22;2377;51.734;8.950;2022-09-24T15:19:59;16.00;43.00
4727;DHT22;2377;51.734;8.950;2022-09-24T15:22:29;15.90;56.10
4727;DHT22;2377;51.734;8.950;2022-09-24T15:24:57;15.90;42.70
4727;DHT22;2377;51.734;8.950;2022-09-24T15:27:26;15.90;38.60
4727;DHT22;2377;51.734;8.950;2022-09-24T15:29:55;16.00;47.70
4727;DHT22;2377;51.734;8.950;2022-09-24T15:32:25;16.00;43.50
4727;DHT22;2377;51.734;8.950;2022-09-24T15:34:53;15.90;41.90
4727;DHT22;2377;51.734;8.950;2022-09-24T15:37:23;15.80;44.20
4727;DHT22;2377;51.734;8.950;2022-09-24T15:39:54;15.80;44.10
4727;DHT22;2377;51.734;8.950;2022-09-24T15:42:25;15.80;55.20
4727;DHT22;2377;51.734;8.950;2022-09-24T15:44:52;15.80;57.30
4727;DHT22;2377;51.734;8.950;2022-09-24T15:47:20;15.80;64.50
4727;DHT22;2377;51.734;8.950;2022-09-24T15:49:47;15.80;28.70
4727;DHT22;2377;51.734;8.950;2022-09-24T15:52:17;15.70;31.90
4727;DHT22;2377;51.734;8.950;2022-09-24T15:54:50;15.70;34.00
4727;DHT22;2377;51.734;8.950;2022-09-24T15:57:18;15.70;54.60
4727;DHT22;2377;51.734;8.950;2022-09-24T15:59:45;15.60;57.70
4727;DHT22;2377;51.734;8.950;2022-09-24T16:02:16;15.60;65.00
4727;DHT22;2377;51.734;8.950;2022-09-24T16:04:47;15.50;64.50
4727;DHT22;2377;51.734;8.950;2022-09-24T16:07:14;15.60;70.40
4727;DHT22;2377;51.734;8.950;2022-09-24T16:09:42;15.50;64.50
4727;DHT22;2377;51.734;8.950;2022-09-24T16:12:13;15.50;68.80
4727;DHT22;2377;51.734;8.950;2022-09-24T16:14:40;15.50;61.80
4727;DHT22;2377;51.734;8.950;2022-09-24T16:17:08;15.50;59.40
4727;DHT22;2377;51.734;8.950;2022-09-24T16:19:36;15.50;74.00
4727;DHT22;2377;51.734;8.950;2022-09-24T16:22:03;15.30;79.70
4727;DHT22;2377;51.734;8.950;2022-09-24T16:24:31;15.40;79.50
4727;DHT22;2377;51.734;8.950;2022-09-24T16:26:58;15.30;92.40
4727;DHT22;2377;51.734;8.950;2022-09-24T16:29:28;15.30;99.90
4727;DHT22;2377;51.734;8.950;2022-09-24T16:31:55;15.20;99.90
4727;DHT22;2377;51.734;8.950;2022-09-24T16:34:22;15.10;99.90
4727;DHT22;2377;51.734;8.950;2022-09-24T16:36:50;15.10;99.90
4727;DHT22;2377;51.734;8.950;2022-09-24T16:39:17;15.10;99.90
4727;DHT22;2377;51.734;8.950;2022-09-24T16:41:46;15.10;99.90
4727;DHT22;2377;51.734;8.950;2022-09-24T16:44:13;15.10;99.90
4727;DHT22;2377;51.734;8.950;2022-09-24T16:46:42;15.10;99.90
4727;DHT22;2377;51.734;8.950;2022-09-24T16:49:10;15.10;99.90
4727;DHT22;2377;51.734;8.950;2022-09-24T16:51:37;15.10;99.90